LGX69M LIME-LTFM
Flight info
| Callsign | LGX69M |
|---|---|
| Flight time | 2h 13m |
| Altitude | 35000 |
| Route | LEGLO L615 NEVNI DCT NOBMI DCT ELTAR DCT PEVAL DCT KOREX DCT IDASI DCT GINAM DCT NISVA DCT KAL DCT DEDIN DCT ADUNO DCT AYTEK |
| Aircraft | B77L/H-SDE2E3FGHIRWXY/LB1 |
Departure
| Time | 2026-05-04 20:41 |
|---|---|
| Airport | Il Caravaggio International Airport (LIME) |
Arrival
| Time | 2026-05-04 22:55 |
|---|---|
| Airport | İstanbul Airport (LTFM) |
| Time | Latitude | Longitude | Altitude | Speed | Heading |
|---|---|---|---|---|---|
| 2026-05-04 19:48 | 45.66568 | 9.70584 | 793 ft | 0 kts | 193° |
| 2026-05-04 20:29 | 45.66567 | 9.70584 | 793 ft | 0 kts | 193° |
| 2026-05-04 20:29 | 45.66568 | 9.70584 | 793 ft | 0 kts | 193° |
| 2026-05-04 20:30 | 45.66578 | 9.70588 | 793 ft | 2 kts | 193° |
| 2026-05-04 20:30 | 45.66600 | 9.70594 | 794 ft | 3 kts | 184° |
| 2026-05-04 20:30 | 45.66621 | 9.70590 | 794 ft | 2 kts | 154° |
| 2026-05-04 20:30 | 45.66636 | 9.70571 | 795 ft | 3 kts | 120° |
| 2026-05-04 20:31 | 45.66642 | 9.70549 | 795 ft | 0 kts | 105° |
| 2026-05-04 20:31 | 45.66639 | 9.70562 | 795 ft | 3 kts | 104° |
| 2026-05-04 20:31 | 45.66633 | 9.70600 | 795 ft | 3 kts | 105° |
| 2026-05-04 20:31 | 45.66629 | 9.70620 | 794 ft | 0 kts | 104° |
| 2026-05-04 20:36 | 45.66627 | 9.70633 | 794 ft | 6 kts | 104° |
| 2026-05-04 20:37 | 45.66611 | 9.70729 | 794 ft | 12 kts | 103° |
| 2026-05-04 20:37 | 45.66588 | 9.70867 | 792 ft | 16 kts | 106° |
| 2026-05-04 20:37 | 45.66554 | 9.71035 | 791 ft | 15 kts | 107° |
| 2026-05-04 20:37 | 45.66513 | 9.71197 | 788 ft | 19 kts | 110° |
| 2026-05-04 20:38 | 45.66468 | 9.71396 | 785 ft | 22 kts | 107° |
| 2026-05-04 20:38 | 45.66444 | 9.71617 | 781 ft | 20 kts | 86° |
| 2026-05-04 20:38 | 45.66474 | 9.71808 | 778 ft | 20 kts | 84° |
| 2026-05-04 20:38 | 45.66449 | 9.72019 | 775 ft | 18 kts | 107° |
| 2026-05-04 20:39 | 45.66412 | 9.72213 | 772 ft | 21 kts | 104° |
| 2026-05-04 20:39 | 45.66382 | 9.72413 | 771 ft | 11 kts | 91° |
| 2026-05-04 20:39 | 45.66382 | 9.72431 | 771 ft | 0 kts | 90° |
| 2026-05-04 20:39 | 45.66392 | 9.72518 | 770 ft | 13 kts | 62° |
| 2026-05-04 20:40 | 45.66437 | 9.72545 | 770 ft | 4 kts | 300° |
| 2026-05-04 20:40 | 45.66441 | 9.72532 | 770 ft | 0 kts | 285° |
| 2026-05-04 20:40 | 45.66446 | 9.72504 | 770 ft | 18 kts | 284° |
| 2026-05-04 20:41 | 45.66565 | 9.71852 | 777 ft | 116 kts | 284° |
| 2026-05-04 20:41 | 45.66856 | 9.70320 | 854 ft | 197 kts | 286° |
| 2026-05-04 20:41 | 45.67214 | 9.68502 | 2173 ft | 190 kts | 288° |
| 2026-05-04 20:41 | 45.67468 | 9.66802 | 3090 ft | 172 kts | 274° |
| 2026-05-04 20:42 | 45.67337 | 9.65012 | 3473 ft | 194 kts | 256° |
| 2026-05-04 20:42 | 45.66748 | 9.63173 | 3953 ft | 214 kts | 237° |
| 2026-05-04 20:42 | 45.65990 | 9.61317 | 4647 ft | 224 kts | 243° |
| 2026-05-04 20:42 | 45.65130 | 9.59483 | 5559 ft | 222 kts | 225° |
| 2026-05-04 20:43 | 45.63984 | 9.58132 | 6436 ft | 219 kts | 210° |
| 2026-05-04 20:43 | 45.62606 | 9.57201 | 7231 ft | 220 kts | 197° |
| 2026-05-04 20:43 | 45.61129 | 9.56714 | 7953 ft | 223 kts | 185° |
| 2026-05-04 20:43 | 45.59589 | 9.56607 | 8723 ft | 224 kts | 177° |
| 2026-05-04 20:44 | 45.58025 | 9.56577 | 9391 ft | 232 kts | 190° |
| 2026-05-04 20:44 | 45.56412 | 9.55875 | 9849 ft | 250 kts | 194° |
| 2026-05-04 20:44 | 45.54676 | 9.55445 | 10477 ft | 259 kts | 185° |
| 2026-05-04 20:44 | 45.52883 | 9.55263 | 11202 ft | 266 kts | 183° |
| 2026-05-04 20:45 | 45.50993 | 9.55483 | 11639 ft | 283 kts | 163° |
| 2026-05-04 20:45 | 45.49232 | 9.56902 | 12020 ft | 305 kts | 137° |
| 2026-05-04 20:45 | 45.48011 | 9.59490 | 12440 ft | 328 kts | 112° |
| 2026-05-04 20:45 | 45.47625 | 9.62732 | 12883 ft | 350 kts | 90° |
| 2026-05-04 20:46 | 45.48092 | 9.66250 | 13407 ft | 369 kts | 71° |
| 2026-05-04 20:46 | 45.49372 | 9.69431 | 14149 ft | 380 kts | 51° |
| 2026-05-04 20:46 | 45.51378 | 9.71893 | 15014 ft | 385 kts | 30° |
| 2026-05-04 20:46 | 45.53819 | 9.73452 | 15879 ft | 390 kts | 18° |
| 2026-05-04 20:47 | 45.56428 | 9.74544 | 16703 ft | 395 kts | 19° |
| 2026-05-04 20:47 | 45.58914 | 9.76158 | 17511 ft | 402 kts | 30° |
| 2026-05-04 20:47 | 45.61206 | 9.78472 | 18316 ft | 407 kts | 41° |
| 2026-05-04 20:47 | 45.63174 | 9.81381 | 19109 ft | 412 kts | 52° |
| 2026-05-04 20:48 | 45.64752 | 9.84792 | 19898 ft | 417 kts | 63° |
| 2026-05-04 20:48 | 45.65867 | 9.88577 | 20673 ft | 420 kts | 74° |
| 2026-05-04 20:48 | 45.66486 | 9.92697 | 21441 ft | 424 kts | 85° |
| 2026-05-04 20:48 | 45.66566 | 9.96901 | 22202 ft | 426 kts | 96° |
| 2026-05-04 20:49 | 45.66199 | 10.01060 | 22922 ft | 429 kts | 100° |
| 2026-05-04 20:49 | 45.65821 | 10.05322 | 23618 ft | 434 kts | 98° |
| 2026-05-04 20:49 | 45.65540 | 10.09643 | 24329 ft | 438 kts | 96° |
| 2026-05-04 20:49 | 45.65342 | 10.13998 | 24991 ft | 443 kts | 94° |
| 2026-05-04 20:50 | 45.65206 | 10.18404 | 25623 ft | 448 kts | 93° |
| 2026-05-04 20:50 | 45.65109 | 10.22846 | 26262 ft | 453 kts | 92° |
| 2026-05-04 20:50 | 45.65034 | 10.27391 | 26907 ft | 457 kts | 92° |
| 2026-05-04 20:50 | 45.64977 | 10.31906 | 27529 ft | 462 kts | 92° |
| 2026-05-04 20:51 | 45.64930 | 10.36538 | 28126 ft | 467 kts | 92° |
| 2026-05-04 20:51 | 45.64890 | 10.41170 | 28727 ft | 472 kts | 92° |
| 2026-05-04 20:51 | 45.64857 | 10.45843 | 29390 ft | 476 kts | 91° |
| 2026-05-04 20:51 | 45.64829 | 10.50559 | 29991 ft | 480 kts | 91° |
| 2026-05-04 20:52 | 45.64802 | 10.55356 | 30541 ft | 485 kts | 91° |
| 2026-05-04 20:52 | 45.64772 | 10.60168 | 31045 ft | 490 kts | 92° |
| 2026-05-04 20:52 | 45.64479 | 10.65076 | 31553 ft | 492 kts | 100° |
| 2026-05-04 20:52 | 45.63938 | 10.69887 | 32046 ft | 496 kts | 101° |
| 2026-05-04 20:53 | 45.63362 | 10.74770 | 32480 ft | 501 kts | 101° |
| 2026-05-04 20:53 | 45.62782 | 10.79672 | 32899 ft | 505 kts | 101° |
| 2026-05-04 20:53 | 45.62195 | 10.84617 | 33322 ft | 509 kts | 101° |
| 2026-05-04 20:53 | 45.61605 | 10.89584 | 33870 ft | 509 kts | 101° |
| 2026-05-04 20:54 | 45.61017 | 10.94524 | 34520 ft | 506 kts | 101° |
| 2026-05-04 20:54 | 45.60428 | 10.99447 | 35108 ft | 506 kts | 101° |
| 2026-05-04 20:54 | 45.59248 | 11.09275 | 35083 ft | 498 kts | 101° |
| 2026-05-04 20:55 | 45.58074 | 11.18982 | 35083 ft | 500 kts | 101° |
| 2026-05-04 20:55 | 45.56882 | 11.28765 | 35081 ft | 498 kts | 101° |
| 2026-05-04 20:56 | 45.55688 | 11.38498 | 35077 ft | 500 kts | 101° |
| 2026-05-04 20:56 | 45.54484 | 11.48237 | 35075 ft | 499 kts | 101° |
| 2026-05-04 20:57 | 45.53277 | 11.57929 | 35075 ft | 498 kts | 101° |
| 2026-05-04 20:57 | 45.52057 | 11.67656 | 35067 ft | 499 kts | 102° |
| 2026-05-04 20:58 | 45.50834 | 11.77344 | 35068 ft | 499 kts | 102° |
| 2026-05-04 20:58 | 45.49598 | 11.87058 | 35065 ft | 500 kts | 102° |
| 2026-05-04 20:59 | 45.48345 | 11.96837 | 35069 ft | 501 kts | 102° |
| 2026-05-04 20:59 | 45.47099 | 12.06495 | 35078 ft | 500 kts | 102° |
| 2026-05-04 21:00 | 45.45831 | 12.16262 | 35074 ft | 500 kts | 102° |
| 2026-05-04 21:00 | 45.44564 | 12.25938 | 35070 ft | 500 kts | 102° |
| 2026-05-04 21:01 | 45.43293 | 12.35591 | 35060 ft | 499 kts | 102° |
| 2026-05-04 21:01 | 45.42001 | 12.45335 | 35068 ft | 499 kts | 101° |
| 2026-05-04 21:02 | 45.40709 | 12.55004 | 35074 ft | 499 kts | 101° |
| 2026-05-04 21:02 | 45.39410 | 12.64668 | 35079 ft | 501 kts | 101° |
| 2026-05-04 21:03 | 45.38107 | 12.74296 | 35082 ft | 498 kts | 102° |
| 2026-05-04 21:03 | 45.36790 | 12.83960 | 35085 ft | 500 kts | 102° |
| 2026-05-04 21:04 | 45.35463 | 12.93637 | 35083 ft | 500 kts | 102° |
| 2026-05-04 21:04 | 45.34134 | 13.03266 | 35081 ft | 499 kts | 102° |
| 2026-05-04 21:05 | 45.32793 | 13.12914 | 35085 ft | 499 kts | 102° |
| 2026-05-04 21:05 | 45.31444 | 13.22551 | 35089 ft | 499 kts | 102° |
| 2026-05-04 21:06 | 45.29660 | 13.32055 | 35090 ft | 499 kts | 107° |
| 2026-05-04 21:06 | 45.27761 | 13.41441 | 35097 ft | 498 kts | 107° |
| 2026-05-04 21:07 | 45.25841 | 13.50878 | 35098 ft | 500 kts | 107° |
| 2026-05-04 21:07 | 45.23907 | 13.60336 | 35096 ft | 498 kts | 107° |
| 2026-05-04 21:08 | 45.21965 | 13.69791 | 35095 ft | 499 kts | 107° |
| 2026-05-04 21:08 | 45.20036 | 13.79142 | 35102 ft | 496 kts | 107° |
| 2026-05-04 21:09 | 45.18088 | 13.88538 | 35103 ft | 497 kts | 107° |
| 2026-05-04 21:09 | 45.16138 | 13.97899 | 35110 ft | 499 kts | 107° |
| 2026-05-04 21:10 | 45.14186 | 14.07229 | 35110 ft | 499 kts | 107° |
| 2026-05-04 21:10 | 45.12206 | 14.16647 | 35110 ft | 500 kts | 107° |
| 2026-05-04 21:11 | 45.10227 | 14.26019 | 35108 ft | 500 kts | 107° |
| 2026-05-04 21:11 | 45.08237 | 14.35399 | 35105 ft | 500 kts | 107° |
| 2026-05-04 21:12 | 45.06219 | 14.44868 | 35119 ft | 502 kts | 107° |
| 2026-05-04 21:12 | 45.04205 | 14.54276 | 35107 ft | 501 kts | 107° |
| 2026-05-04 21:13 | 45.02185 | 14.63668 | 35113 ft | 503 kts | 107° |
| 2026-05-04 21:13 | 45.00150 | 14.73086 | 35113 ft | 504 kts | 107° |
| 2026-05-04 21:14 | 44.98102 | 14.82526 | 35112 ft | 504 kts | 107° |
| 2026-05-04 21:14 | 44.96043 | 14.91973 | 35119 ft | 505 kts | 107° |
| 2026-05-04 21:15 | 44.93972 | 15.01431 | 35136 ft | 505 kts | 107° |
| 2026-05-04 21:15 | 44.91896 | 15.10867 | 35139 ft | 504 kts | 107° |
| 2026-05-04 21:16 | 44.89831 | 15.20215 | 35134 ft | 503 kts | 107° |
| 2026-05-04 21:16 | 44.87740 | 15.29636 | 35121 ft | 501 kts | 107° |
| 2026-05-04 21:17 | 44.85674 | 15.38908 | 35136 ft | 499 kts | 107° |
| 2026-05-04 21:17 | 44.83593 | 15.48202 | 35138 ft | 498 kts | 107° |
| 2026-05-04 21:18 | 44.81520 | 15.57422 | 35119 ft | 496 kts | 107° |
| 2026-05-04 21:18 | 44.79434 | 15.66663 | 35120 ft | 495 kts | 108° |
| 2026-05-04 21:19 | 44.77342 | 15.75887 | 35103 ft | 493 kts | 108° |
| 2026-05-04 21:19 | 44.75301 | 15.85115 | 35111 ft | 495 kts | 107° |
| 2026-05-04 21:20 | 44.73294 | 15.94286 | 35114 ft | 491 kts | 107° |
| 2026-05-04 21:20 | 44.71286 | 16.03411 | 35096 ft | 492 kts | 107° |
| 2026-05-04 21:21 | 44.69257 | 16.12589 | 35116 ft | 495 kts | 107° |
| 2026-05-04 21:21 | 44.67211 | 16.21789 | 35117 ft | 493 kts | 107° |
| 2026-05-04 21:22 | 44.65161 | 16.30973 | 35125 ft | 492 kts | 107° |
| 2026-05-04 21:22 | 44.63114 | 16.40101 | 35127 ft | 493 kts | 107° |
| 2026-05-04 21:23 | 44.61061 | 16.49217 | 35128 ft | 492 kts | 107° |
| 2026-05-04 21:23 | 44.58991 | 16.58369 | 35115 ft | 492 kts | 107° |
| 2026-05-04 21:24 | 44.56910 | 16.67529 | 35129 ft | 493 kts | 107° |
| 2026-05-04 21:24 | 44.54839 | 16.76608 | 35120 ft | 492 kts | 107° |
| 2026-05-04 21:25 | 44.52752 | 16.85721 | 35137 ft | 493 kts | 107° |
| 2026-05-04 21:25 | 44.50660 | 16.94813 | 35140 ft | 491 kts | 107° |
| 2026-05-04 21:26 | 44.48571 | 17.03858 | 35135 ft | 490 kts | 107° |
| 2026-05-04 21:26 | 44.46464 | 17.12889 | 35143 ft | 491 kts | 108° |
| 2026-05-04 21:27 | 44.44217 | 17.21888 | 35154 ft | 491 kts | 108° |
| 2026-05-04 21:27 | 44.41951 | 17.30911 | 35150 ft | 491 kts | 108° |
| 2026-05-04 21:28 | 44.39692 | 17.39892 | 35145 ft | 491 kts | 108° |
| 2026-05-04 21:28 | 44.37420 | 17.48898 | 35137 ft | 492 kts | 108° |
| 2026-05-04 21:29 | 44.35152 | 17.57858 | 35130 ft | 492 kts | 108° |
| 2026-05-04 21:29 | 44.32857 | 17.66891 | 35128 ft | 493 kts | 108° |
| 2026-05-04 21:30 | 44.30577 | 17.75830 | 35120 ft | 493 kts | 108° |
| 2026-05-04 21:30 | 44.28272 | 17.84838 | 35120 ft | 494 kts | 108° |
| 2026-05-04 21:31 | 44.24803 | 17.98327 | 35118 ft | 493 kts | 108° |
| 2026-05-04 21:32 | 44.22485 | 18.07297 | 35129 ft | 492 kts | 108° |
| 2026-05-04 21:32 | 44.20165 | 18.16241 | 35136 ft | 492 kts | 108° |
| 2026-05-04 21:33 | 44.17835 | 18.25190 | 35145 ft | 493 kts | 108° |
| 2026-05-04 21:33 | 44.15497 | 18.34138 | 35140 ft | 493 kts | 108° |
| 2026-05-04 21:34 | 44.13153 | 18.43074 | 35142 ft | 493 kts | 108° |
| 2026-05-04 21:34 | 44.10797 | 18.52020 | 35139 ft | 493 kts | 108° |
| 2026-05-04 21:35 | 44.08431 | 18.60973 | 35144 ft | 494 kts | 108° |
| 2026-05-04 21:35 | 44.06059 | 18.69913 | 35139 ft | 493 kts | 108° |
| 2026-05-04 21:36 | 44.03692 | 18.78800 | 35144 ft | 492 kts | 108° |
| 2026-05-04 21:36 | 44.01322 | 18.87668 | 35144 ft | 493 kts | 108° |
| 2026-05-04 21:37 | 43.98926 | 18.96599 | 35139 ft | 493 kts | 108° |
| 2026-05-04 21:37 | 43.96521 | 19.05529 | 35144 ft | 494 kts | 108° |
| 2026-05-04 21:38 | 43.94114 | 19.14436 | 35148 ft | 494 kts | 108° |
| 2026-05-04 21:38 | 43.91698 | 19.23342 | 35151 ft | 493 kts | 108° |
| 2026-05-04 21:39 | 43.89287 | 19.32198 | 35144 ft | 492 kts | 108° |
| 2026-05-04 21:39 | 43.86877 | 19.41018 | 35148 ft | 492 kts | 108° |
| 2026-05-04 21:40 | 43.84448 | 19.49875 | 35148 ft | 492 kts | 108° |
| 2026-05-04 21:40 | 43.82022 | 19.58690 | 35148 ft | 493 kts | 108° |
| 2026-05-04 21:41 | 43.79577 | 19.67542 | 35146 ft | 493 kts | 109° |
| 2026-05-04 21:41 | 43.77117 | 19.76414 | 35151 ft | 492 kts | 109° |
| 2026-05-04 21:42 | 43.74682 | 19.85163 | 35147 ft | 491 kts | 109° |
| 2026-05-04 21:42 | 43.72224 | 19.93967 | 35141 ft | 491 kts | 109° |
| 2026-05-04 21:43 | 43.69763 | 20.02752 | 35150 ft | 492 kts | 109° |
| 2026-05-04 21:43 | 43.67292 | 20.11535 | 35144 ft | 492 kts | 109° |
| 2026-05-04 21:44 | 43.64824 | 20.20283 | 35155 ft | 492 kts | 108° |
| 2026-05-04 21:44 | 43.62344 | 20.29040 | 35146 ft | 491 kts | 108° |
| 2026-05-04 21:45 | 43.59841 | 20.37845 | 35144 ft | 491 kts | 108° |
| 2026-05-04 21:45 | 43.57361 | 20.46540 | 35145 ft | 491 kts | 108° |
| 2026-05-04 21:46 | 43.54863 | 20.55270 | 35150 ft | 491 kts | 108° |
| 2026-05-04 21:46 | 43.52353 | 20.64008 | 35155 ft | 490 kts | 108° |
| 2026-05-04 21:47 | 43.49829 | 20.72767 | 35154 ft | 491 kts | 109° |
| 2026-05-04 21:47 | 43.47322 | 20.81435 | 35160 ft | 491 kts | 109° |
| 2026-05-04 21:48 | 43.44790 | 20.90161 | 35155 ft | 491 kts | 109° |
| 2026-05-04 21:48 | 43.42261 | 20.98846 | 35152 ft | 491 kts | 109° |
| 2026-05-04 21:49 | 43.39716 | 21.07552 | 35139 ft | 490 kts | 109° |
| 2026-05-04 21:49 | 43.37173 | 21.16227 | 35139 ft | 491 kts | 108° |
| 2026-05-04 21:50 | 43.34640 | 21.24837 | 35138 ft | 490 kts | 109° |
| 2026-05-04 21:50 | 43.32085 | 21.33491 | 35136 ft | 491 kts | 109° |
| 2026-05-04 21:51 | 43.29650 | 21.42258 | 35140 ft | 488 kts | 104° |
| 2026-05-04 21:51 | 43.27668 | 21.51137 | 35137 ft | 488 kts | 103° |
| 2026-05-04 21:52 | 43.25669 | 21.59982 | 35136 ft | 488 kts | 104° |
| 2026-05-04 21:52 | 43.23641 | 21.68835 | 35135 ft | 487 kts | 104° |
| 2026-05-04 21:53 | 43.21594 | 21.77690 | 35134 ft | 488 kts | 104° |
| 2026-05-04 21:53 | 43.19543 | 21.86500 | 35132 ft | 489 kts | 104° |
| 2026-05-04 21:54 | 43.17471 | 21.95352 | 35136 ft | 488 kts | 104° |
| 2026-05-04 21:54 | 43.15409 | 22.04124 | 35138 ft | 488 kts | 104° |
| 2026-05-04 21:55 | 43.13324 | 22.12949 | 35139 ft | 487 kts | 105° |
| 2026-05-04 21:55 | 43.11245 | 22.21720 | 35140 ft | 487 kts | 105° |
| 2026-05-04 21:56 | 43.09149 | 22.30521 | 35143 ft | 487 kts | 105° |
| 2026-05-04 21:56 | 43.07041 | 22.39338 | 35148 ft | 488 kts | 105° |
| 2026-05-04 21:57 | 43.04942 | 22.48085 | 35152 ft | 488 kts | 105° |
| 2026-05-04 21:57 | 43.02818 | 22.56901 | 35154 ft | 488 kts | 105° |
| 2026-05-04 21:58 | 43.00701 | 22.65653 | 35150 ft | 488 kts | 105° |
| 2026-05-04 21:58 | 42.98578 | 22.74397 | 35143 ft | 486 kts | 106° |
| 2026-05-04 21:59 | 42.96268 | 22.83082 | 35152 ft | 488 kts | 110° |
| 2026-05-04 21:59 | 42.93695 | 22.91652 | 35150 ft | 487 kts | 109° |
| 2026-05-04 22:00 | 42.91239 | 23.00182 | 35153 ft | 487 kts | 109° |
| 2026-05-04 22:00 | 42.88751 | 23.08792 | 35139 ft | 487 kts | 109° |
| 2026-05-04 22:01 | 42.86257 | 23.17384 | 35145 ft | 488 kts | 109° |
| 2026-05-04 22:01 | 42.83767 | 23.25925 | 35146 ft | 488 kts | 109° |
| 2026-05-04 22:02 | 42.81260 | 23.34493 | 35153 ft | 488 kts | 109° |
| 2026-05-04 22:02 | 42.78747 | 23.43050 | 35140 ft | 487 kts | 109° |
| 2026-05-04 22:03 | 42.76226 | 23.51607 | 35131 ft | 487 kts | 109° |
| 2026-05-04 22:03 | 42.73705 | 23.60132 | 35139 ft | 487 kts | 109° |
| 2026-05-04 22:04 | 42.71185 | 23.68627 | 35145 ft | 487 kts | 110° |
| 2026-05-04 22:04 | 42.68655 | 23.77129 | 35148 ft | 488 kts | 110° |
| 2026-05-04 22:05 | 42.66111 | 23.85649 | 35152 ft | 487 kts | 110° |
| 2026-05-04 22:05 | 42.63570 | 23.94128 | 35148 ft | 487 kts | 110° |
| 2026-05-04 22:06 | 42.61013 | 24.02636 | 35154 ft | 487 kts | 110° |
| 2026-05-04 22:06 | 42.58267 | 24.10978 | 35152 ft | 487 kts | 115° |
| 2026-05-04 22:07 | 42.55167 | 24.19134 | 35145 ft | 487 kts | 116° |
| 2026-05-04 22:07 | 42.52054 | 24.27292 | 35146 ft | 487 kts | 116° |
| 2026-05-04 22:08 | 42.48945 | 24.35416 | 35139 ft | 486 kts | 115° |
| 2026-05-04 22:08 | 42.45840 | 24.43508 | 35134 ft | 487 kts | 115° |
| 2026-05-04 22:09 | 42.42720 | 24.51619 | 35115 ft | 487 kts | 116° |
| 2026-05-04 22:09 | 42.39598 | 24.59714 | 35115 ft | 487 kts | 115° |
| 2026-05-04 22:10 | 42.36456 | 24.67836 | 35109 ft | 487 kts | 116° |
| 2026-05-04 22:10 | 42.33329 | 24.75899 | 35103 ft | 485 kts | 116° |
| 2026-05-04 22:11 | 42.30196 | 24.83954 | 35090 ft | 486 kts | 116° |
| 2026-05-04 22:11 | 42.27057 | 24.92002 | 35091 ft | 486 kts | 116° |
| 2026-05-04 22:12 | 42.23896 | 25.00084 | 35104 ft | 486 kts | 116° |
| 2026-05-04 22:12 | 42.20748 | 25.08110 | 35095 ft | 486 kts | 116° |
| 2026-05-04 22:13 | 42.17606 | 25.16097 | 35093 ft | 486 kts | 116° |
| 2026-05-04 22:13 | 42.14449 | 25.24102 | 35096 ft | 485 kts | 116° |
| 2026-05-04 22:14 | 42.11279 | 25.32117 | 35093 ft | 485 kts | 116° |
| 2026-05-04 22:14 | 42.08109 | 25.40112 | 35090 ft | 484 kts | 116° |
| 2026-05-04 22:15 | 42.05227 | 25.48230 | 35096 ft | 481 kts | 108° |
| 2026-05-04 22:15 | 42.02931 | 25.56639 | 35087 ft | 481 kts | 107° |
| 2026-05-04 22:16 | 42.00639 | 25.65025 | 35094 ft | 482 kts | 108° |
| 2026-05-04 22:16 | 41.98304 | 25.73523 | 35083 ft | 482 kts | 108° |
| 2026-05-04 22:17 | 41.95980 | 25.81942 | 35085 ft | 482 kts | 108° |
| 2026-05-04 22:17 | 41.93646 | 25.90360 | 34955 ft | 476 kts | 108° |
| 2026-05-04 22:17 | 41.92491 | 25.94514 | 34150 ft | 479 kts | 108° |
| 2026-05-04 22:18 | 41.91330 | 25.98683 | 33334 ft | 480 kts | 108° |
| 2026-05-04 22:18 | 41.90164 | 26.02864 | 32568 ft | 480 kts | 108° |
| 2026-05-04 22:18 | 41.89004 | 26.07016 | 31745 ft | 481 kts | 108° |
| 2026-05-04 22:18 | 41.87824 | 26.11231 | 30922 ft | 482 kts | 108° |
| 2026-05-04 22:19 | 41.86658 | 26.15388 | 30358 ft | 478 kts | 108° |
| 2026-05-04 22:19 | 41.85492 | 26.19535 | 29945 ft | 479 kts | 108° |
| 2026-05-04 22:19 | 41.84306 | 26.23760 | 29446 ft | 491 kts | 108° |
| 2026-05-04 22:19 | 41.83121 | 26.27960 | 29251 ft | 478 kts | 107° |
| 2026-05-04 22:20 | 41.81958 | 26.32070 | 29183 ft | 463 kts | 107° |
| 2026-05-04 22:20 | 41.80834 | 26.36040 | 29043 ft | 450 kts | 107° |
| 2026-05-04 22:20 | 41.79755 | 26.39928 | 28768 ft | 441 kts | 106° |
| 2026-05-04 22:20 | 41.78713 | 26.43756 | 28389 ft | 435 kts | 106° |
| 2026-05-04 22:21 | 41.77681 | 26.47544 | 28048 ft | 431 kts | 106° |
| 2026-05-04 22:21 | 41.76656 | 26.51298 | 27728 ft | 430 kts | 106° |
| 2026-05-04 22:21 | 41.75622 | 26.55049 | 27403 ft | 430 kts | 108° |
| 2026-05-04 22:21 | 41.74298 | 26.58605 | 27082 ft | 432 kts | 117° |
| 2026-05-04 22:22 | 41.72678 | 26.61977 | 26767 ft | 431 kts | 119° |
| 2026-05-04 22:22 | 41.71040 | 26.65291 | 26446 ft | 428 kts | 120° |
| 2026-05-04 22:22 | 41.69402 | 26.68598 | 26125 ft | 426 kts | 120° |
| 2026-05-04 22:22 | 41.67762 | 26.71902 | 25810 ft | 423 kts | 120° |
| 2026-05-04 22:23 | 41.65992 | 26.75013 | 25497 ft | 425 kts | 129° |
| 2026-05-04 22:23 | 41.63802 | 26.77697 | 25179 ft | 427 kts | 140° |
| 2026-05-04 22:23 | 41.61313 | 26.79813 | 24850 ft | 428 kts | 150° |
| 2026-05-04 22:23 | 41.58543 | 26.81339 | 24450 ft | 430 kts | 161° |
| 2026-05-04 22:24 | 41.55660 | 26.82404 | 24046 ft | 427 kts | 159° |
| 2026-05-04 22:24 | 41.52960 | 26.83934 | 23653 ft | 421 kts | 148° |
| 2026-05-04 22:24 | 41.50549 | 26.86037 | 23273 ft | 414 kts | 137° |
| 2026-05-04 22:24 | 41.48429 | 26.88600 | 22893 ft | 408 kts | 130° |
| 2026-05-04 22:25 | 41.46594 | 26.91393 | 22502 ft | 403 kts | 124° |
| 2026-05-04 22:25 | 41.44966 | 26.94369 | 22108 ft | 398 kts | 119° |
| 2026-05-04 22:25 | 41.43479 | 26.97463 | 21717 ft | 393 kts | 116° |
| 2026-05-04 22:25 | 41.42108 | 27.00575 | 21346 ft | 389 kts | 114° |
| 2026-05-04 22:26 | 41.40820 | 27.03715 | 20984 ft | 386 kts | 115° |
| 2026-05-04 22:26 | 41.39264 | 27.06664 | 20648 ft | 390 kts | 127° |
| 2026-05-04 22:26 | 41.37316 | 27.09149 | 20303 ft | 394 kts | 138° |
| 2026-05-04 22:26 | 41.35058 | 27.11223 | 19954 ft | 395 kts | 143° |
| 2026-05-04 22:27 | 41.32746 | 27.13173 | 19601 ft | 392 kts | 144° |
| 2026-05-04 22:27 | 41.30442 | 27.15075 | 19244 ft | 391 kts | 144° |
| 2026-05-04 22:27 | 41.28119 | 27.16967 | 18886 ft | 388 kts | 144° |
| 2026-05-04 22:27 | 41.25834 | 27.18812 | 18538 ft | 387 kts | 144° |
| 2026-05-04 22:28 | 41.23520 | 27.20668 | 18188 ft | 385 kts | 144° |
| 2026-05-04 22:28 | 41.21249 | 27.22481 | 17864 ft | 383 kts | 144° |
| 2026-05-04 22:28 | 41.18986 | 27.24282 | 17510 ft | 382 kts | 144° |
| 2026-05-04 22:28 | 41.16723 | 27.26095 | 17156 ft | 380 kts | 144° |
| 2026-05-04 22:29 | 41.14456 | 27.27908 | 16812 ft | 378 kts | 144° |
| 2026-05-04 22:29 | 41.12204 | 27.29708 | 16480 ft | 376 kts | 144° |
| 2026-05-04 22:29 | 41.09961 | 27.31496 | 16142 ft | 375 kts | 144° |
| 2026-05-04 22:29 | 41.07755 | 27.33253 | 15797 ft | 374 kts | 144° |
| 2026-05-04 22:30 | 41.05519 | 27.35032 | 15448 ft | 372 kts | 144° |
| 2026-05-04 22:30 | 41.03321 | 27.36778 | 15109 ft | 371 kts | 144° |
| 2026-05-04 22:30 | 41.01111 | 27.38532 | 14776 ft | 370 kts | 144° |
| 2026-05-04 22:30 | 40.98909 | 27.40329 | 14432 ft | 366 kts | 139° |
| 2026-05-04 22:31 | 40.97046 | 27.42553 | 14097 ft | 357 kts | 123° |
| 2026-05-04 22:31 | 40.95742 | 27.45221 | 13839 ft | 344 kts | 109° |
| 2026-05-04 22:31 | 40.94748 | 27.48105 | 13681 ft | 343 kts | 107° |
| 2026-05-04 22:31 | 40.93817 | 27.50986 | 13503 ft | 340 kts | 105° |
| 2026-05-04 22:32 | 40.92926 | 27.53876 | 13305 ft | 339 kts | 105° |
| 2026-05-04 22:32 | 40.92052 | 27.56772 | 13106 ft | 337 kts | 105° |
| 2026-05-04 22:32 | 40.91195 | 27.59642 | 12919 ft | 336 kts | 104° |
| 2026-05-04 22:32 | 40.90321 | 27.62484 | 12731 ft | 338 kts | 107° |
| 2026-05-04 22:33 | 40.89330 | 27.65311 | 12531 ft | 338 kts | 109° |
| 2026-05-04 22:33 | 40.88342 | 27.68102 | 12300 ft | 336 kts | 108° |
| 2026-05-04 22:33 | 40.87353 | 27.70920 | 12092 ft | 334 kts | 108° |
| 2026-05-04 22:33 | 40.86382 | 27.73705 | 11897 ft | 333 kts | 108° |
| 2026-05-04 22:34 | 40.85423 | 27.76462 | 11700 ft | 331 kts | 108° |
| 2026-05-04 22:34 | 40.84463 | 27.79222 | 11514 ft | 330 kts | 108° |
| 2026-05-04 22:34 | 40.83508 | 27.81971 | 11329 ft | 330 kts | 108° |
| 2026-05-04 22:34 | 40.82555 | 27.84729 | 11140 ft | 327 kts | 105° |
| 2026-05-04 22:35 | 40.82063 | 27.87539 | 10939 ft | 313 kts | 86° |
| 2026-05-04 22:35 | 40.82123 | 27.90376 | 10845 ft | 308 kts | 80° |
| 2026-05-04 22:35 | 40.82294 | 27.93215 | 10759 ft | 308 kts | 79° |
| 2026-05-04 22:35 | 40.82480 | 27.95979 | 10667 ft | 306 kts | 79° |
| 2026-05-04 22:36 | 40.82674 | 27.98795 | 10568 ft | 306 kts | 78° |
| 2026-05-04 22:36 | 40.82865 | 28.01583 | 10461 ft | 306 kts | 79° |
| 2026-05-04 22:36 | 40.83054 | 28.04364 | 10360 ft | 304 kts | 79° |
| 2026-05-04 22:36 | 40.83236 | 28.07079 | 10260 ft | 292 kts | 78° |
| 2026-05-04 22:37 | 40.83412 | 28.09705 | 10170 ft | 280 kts | 78° |
| 2026-05-04 22:37 | 40.83581 | 28.12220 | 10075 ft | 268 kts | 78° |
| 2026-05-04 22:37 | 40.83743 | 28.14616 | 9988 ft | 258 kts | 78° |
| 2026-05-04 22:37 | 40.83901 | 28.16945 | 9861 ft | 258 kts | 78° |
| 2026-05-04 22:38 | 40.84061 | 28.19302 | 9700 ft | 257 kts | 78° |
| 2026-05-04 22:38 | 40.84218 | 28.21664 | 9540 ft | 257 kts | 78° |
| 2026-05-04 22:38 | 40.84373 | 28.23998 | 9387 ft | 257 kts | 78° |
| 2026-05-04 22:38 | 40.84528 | 28.26343 | 9238 ft | 256 kts | 78° |
| 2026-05-04 22:39 | 40.84684 | 28.28697 | 9088 ft | 257 kts | 78° |
| 2026-05-04 22:39 | 40.84837 | 28.31024 | 8943 ft | 257 kts | 78° |
| 2026-05-04 22:39 | 40.84989 | 28.33360 | 8792 ft | 255 kts | 78° |
| 2026-05-04 22:39 | 40.85142 | 28.35692 | 8645 ft | 256 kts | 78° |
| 2026-05-04 22:40 | 40.85294 | 28.38028 | 8497 ft | 255 kts | 78° |
| 2026-05-04 22:40 | 40.85444 | 28.40340 | 8344 ft | 251 kts | 78° |
| 2026-05-04 22:40 | 40.85588 | 28.42593 | 8197 ft | 242 kts | 77° |
| 2026-05-04 22:40 | 40.85727 | 28.44769 | 8086 ft | 232 kts | 77° |
| 2026-05-04 22:41 | 40.86023 | 28.46823 | 7937 ft | 226 kts | 66° |
| 2026-05-04 22:41 | 40.86524 | 28.48805 | 7732 ft | 226 kts | 64° |
| 2026-05-04 22:41 | 40.87033 | 28.50747 | 7525 ft | 223 kts | 64° |
| 2026-05-04 22:41 | 40.87539 | 28.52687 | 7335 ft | 223 kts | 64° |
| 2026-05-04 22:42 | 40.88042 | 28.54617 | 7158 ft | 224 kts | 64° |
| 2026-05-04 22:42 | 40.88549 | 28.56573 | 6967 ft | 222 kts | 64° |
| 2026-05-04 22:42 | 40.89048 | 28.58495 | 6769 ft | 221 kts | 64° |
| 2026-05-04 22:42 | 40.89543 | 28.60406 | 6585 ft | 221 kts | 64° |
| 2026-05-04 22:43 | 40.90044 | 28.62336 | 6405 ft | 221 kts | 64° |
| 2026-05-04 22:43 | 40.90537 | 28.64240 | 6232 ft | 221 kts | 64° |
| 2026-05-04 22:43 | 40.91038 | 28.66179 | 6026 ft | 221 kts | 64° |
| 2026-05-04 22:43 | 40.91579 | 28.68060 | 5848 ft | 217 kts | 54° |
| 2026-05-04 22:44 | 40.92557 | 28.69489 | 5669 ft | 209 kts | 32° |
| 2026-05-04 22:44 | 40.93787 | 28.70496 | 5505 ft | 207 kts | 27° |
| 2026-05-04 22:44 | 40.95044 | 28.71442 | 5330 ft | 201 kts | 26° |
| 2026-05-04 22:44 | 40.96249 | 28.72331 | 5163 ft | 196 kts | 26° |
| 2026-05-04 22:45 | 40.97374 | 28.73335 | 5003 ft | 198 kts | 44° |
| 2026-05-04 22:45 | 40.97577 | 28.76806 | 4953 ft | 205 kts | 116° |
| 2026-05-04 22:45 | 40.96519 | 28.77955 | 4954 ft | 200 kts | 158° |
| 2026-05-04 22:46 | 40.95082 | 28.78050 | 4974 ft | 210 kts | 199° |
| 2026-05-04 22:46 | 40.93871 | 28.77046 | 4984 ft | 206 kts | 239° |
| 2026-05-04 22:46 | 40.93363 | 28.75404 | 4981 ft | 186 kts | 280° |
| 2026-05-04 22:46 | 40.93711 | 28.73908 | 4977 ft | 163 kts | 321° |
| 2026-05-04 22:47 | 40.94644 | 28.73247 | 4973 ft | 151 kts | 0° |
| 2026-05-04 22:47 | 40.95698 | 28.73290 | 4988 ft | 152 kts | 3° |
| 2026-05-04 22:47 | 40.96759 | 28.73329 | 4989 ft | 151 kts | 2° |
| 2026-05-04 22:47 | 40.97811 | 28.73335 | 4988 ft | 150 kts | 0° |
| 2026-05-04 22:48 | 40.98853 | 28.73322 | 4988 ft | 152 kts | 0° |
| 2026-05-04 22:48 | 40.99914 | 28.73301 | 4991 ft | 151 kts | 360° |
| 2026-05-04 22:48 | 41.00958 | 28.73278 | 4990 ft | 151 kts | 360° |
| 2026-05-04 22:48 | 41.02015 | 28.73253 | 4987 ft | 151 kts | 360° |
| 2026-05-04 22:49 | 41.03079 | 28.73230 | 4839 ft | 154 kts | 360° |
| 2026-05-04 22:49 | 41.04135 | 28.73208 | 4641 ft | 150 kts | 359° |
| 2026-05-04 22:49 | 41.05191 | 28.73187 | 4445 ft | 151 kts | 359° |
| 2026-05-04 22:49 | 41.06249 | 28.73167 | 4247 ft | 150 kts | 359° |
| 2026-05-04 22:50 | 41.07279 | 28.73147 | 4052 ft | 149 kts | 359° |
| 2026-05-04 22:50 | 41.08326 | 28.73126 | 3852 ft | 149 kts | 359° |
| 2026-05-04 22:50 | 41.09352 | 28.73106 | 3656 ft | 148 kts | 359° |
| 2026-05-04 22:50 | 41.10383 | 28.73086 | 3461 ft | 147 kts | 359° |
| 2026-05-04 22:51 | 41.11417 | 28.73066 | 3278 ft | 148 kts | 359° |
| 2026-05-04 22:51 | 41.12436 | 28.73046 | 3084 ft | 145 kts | 359° |
| 2026-05-04 22:51 | 41.13477 | 28.73026 | 2882 ft | 152 kts | 359° |
| 2026-05-04 22:51 | 41.14529 | 28.73005 | 2682 ft | 152 kts | 359° |
| 2026-05-04 22:52 | 41.15587 | 28.72984 | 2496 ft | 153 kts | 359° |
| 2026-05-04 22:52 | 41.16659 | 28.72964 | 2276 ft | 153 kts | 358° |
| 2026-05-04 22:52 | 41.17728 | 28.72942 | 2065 ft | 154 kts | 358° |
| 2026-05-04 22:52 | 41.18785 | 28.72922 | 1862 ft | 149 kts | 358° |
| 2026-05-04 22:53 | 41.19780 | 28.72904 | 1650 ft | 137 kts | 357° |
| 2026-05-04 22:53 | 41.20741 | 28.72883 | 1473 ft | 138 kts | 358° |
| 2026-05-04 22:53 | 41.21709 | 28.72864 | 1279 ft | 143 kts | 357° |
| 2026-05-04 22:53 | 41.22735 | 28.72834 | 1076 ft | 146 kts | 356° |
| 2026-05-04 22:54 | 41.23753 | 28.72800 | 901 ft | 147 kts | 358° |
| 2026-05-04 22:54 | 41.24784 | 28.72801 | 698 ft | 151 kts | 358° |
| 2026-05-04 22:54 | 41.25851 | 28.72773 | 509 ft | 153 kts | 357° |
| 2026-05-04 22:54 | 41.26908 | 28.72753 | 342 ft | 143 kts | 356° |
| 2026-05-04 22:55 | 41.27734 | 28.72732 | 341 ft | 92 kts | 360° |
| 2026-05-04 22:55 | 41.28108 | 28.72726 | 341 ft | 32 kts | 1° |
| 2026-05-04 22:55 | 41.28298 | 28.72685 | 341 ft | 22 kts | 338° |
| 2026-05-04 22:55 | 41.28416 | 28.72605 | 341 ft | 16 kts | 328° |
| 2026-05-04 22:56 | 41.28502 | 28.72511 | 341 ft | 15 kts | 297° |
| 2026-05-04 22:56 | 41.28514 | 28.72375 | 341 ft | 14 kts | 267° |
| 2026-05-04 22:56 | 41.28466 | 28.72268 | 341 ft | 14 kts | 206° |
| 2026-05-04 22:56 | 41.28364 | 28.72257 | 341 ft | 15 kts | 179° |
| 2026-05-04 22:57 | 41.28252 | 28.72260 | 341 ft | 16 kts | 179° |
| 2026-05-04 22:57 | 41.28135 | 28.72264 | 341 ft | 17 kts | 180° |
| 2026-05-04 22:57 | 41.28009 | 28.72265 | 341 ft | 18 kts | 179° |
| 2026-05-04 22:57 | 41.27881 | 28.72268 | 341 ft | 18 kts | 179° |
| 2026-05-04 22:58 | 41.27746 | 28.72270 | 341 ft | 19 kts | 179° |
| 2026-05-04 22:58 | 41.27609 | 28.72274 | 341 ft | 20 kts | 176° |
| 2026-05-04 22:58 | 41.27486 | 28.72273 | 341 ft | 17 kts | 178° |
| 2026-05-04 22:58 | 41.27368 | 28.72276 | 341 ft | 15 kts | 179° |
| 2026-05-04 22:59 | 41.27258 | 28.72279 | 341 ft | 16 kts | 181° |
| 2026-05-04 22:59 | 41.27164 | 28.72280 | 341 ft | 6 kts | 183° |
| 2026-05-04 22:59 | 41.27122 | 28.72250 | 341 ft | 7 kts | 242° |
| 2026-05-04 22:59 | 41.27114 | 28.72192 | 341 ft | 7 kts | 267° |
| 2026-05-04 23:00 | 41.27111 | 28.72136 | 341 ft | 5 kts | 269° |
| 2026-05-04 23:00 | 41.27111 | 28.72118 | 341 ft | 0 kts | 270° |